»·PEaware :: N149CD KBUR-KSBA

N149CD :: KBUR-KSBA

FLIGHT INFORMATION

Flight Status: Arrived
Operator: Privately registered:
United States
More flights under this callsign
Pilot: Nathan E. (30132)
Aircraft: CESSNA 172 SKYHAWK
(C172)
More flights by this aircraft type
Origin: KBUR Bob Hope-Burbank
United States
Destination: KSBA Santa Barbara Mun
United States
More flights between these airports :: More routes between these airports
Route: +VNY3 FIM V186 DEANO V27 KWANG
File this flight plan on PilotEdge
Remarks: TEC route BURP39
Altitude:
(Current/Filed)
6,000ft
Speed:
(Current/Filed)
110kts
Departed: 02-Oct-20 03:15 PM
Arrived: 02-Oct-20 04:01 PM
Distance/Time
Traveled:
75nm/0:46
Distance/Time
To Go:
Arrived

Flight Plot

Page will automatically refresh every two minutes.

Flight plan parsing failed; only flown route is shown


Map Options




Map Legend


Flown Route
Filed Route
Departure Airport
Arrival Airport
Navaid (VOR, NDB)
Fix

Horizontal Profiles

Position Reports

Time Latitude Longitude Heading Altitude Ground
Speed
02-Oct-20 14:53 34.200211 -118.358868 280 721ft 0kts
02-Oct-20 14:55 34.200211 -118.358868 280 721ft 0kts
02-Oct-20 14:56 34.200211 -118.358868 280 721ft 0kts
02-Oct-20 14:56 34.200211 -118.358868 280 721ft 0kts
02-Oct-20 14:58 34.200211 -118.358868 280 721ft 0kts
02-Oct-20 14:59 34.200211 -118.358868 280 721ft 0kts
02-Oct-20 14:59 34.200211 -118.358868 280 721ft 0kts
02-Oct-20 15:00 34.200211 -118.358868 280 721ft 0kts
02-Oct-20 15:01 34.200211 -118.358868 280 721ft 0kts
02-Oct-20 15:02 34.200211 -118.358868 280 721ft 0kts
02-Oct-20 15:03 34.200211 -118.358868 280 721ft 0kts
02-Oct-20 15:04 34.200211 -118.358868 280 721ft 0kts
02-Oct-20 15:05 34.200211 -118.358868 280 721ft 0kts
02-Oct-20 15:06 34.199652 -118.358657 115 718ft 13kts
02-Oct-20 15:07 34.204101 -118.359342 346 736ft 22kts
02-Oct-20 15:08 34.209924 -118.360948 346 762ft 19kts
02-Oct-20 15:09 34.212023 -118.361375 41 769ft 0kts
02-Oct-20 15:10 34.212023 -118.361375 41 769ft 0kts
02-Oct-20 15:11 34.212023 -118.361375 41 769ft 0kts
02-Oct-20 15:12 34.212023 -118.361375 41 769ft 0kts
02-Oct-20 15:13 34.212023 -118.361375 41 769ft 0kts
02-Oct-20 15:14 34.206987 -118.358994 168 776ft 71kts
02-Oct-20 15:15 34.187247 -118.353660 182 1511ft 72kts
02-Oct-20 15:16 34.172331 -118.370618 224 2238ft 77kts
02-Oct-20 15:17 34.158450 -118.390507 224 2914ft 79kts
02-Oct-20 15:18 34.144091 -118.411351 229 3555ft 82kts
02-Oct-20 15:19 34.144295 -118.440430 271 4164ft 89kts
02-Oct-20 15:20 34.146435 -118.470685 271 4751ft 91kts
02-Oct-20 15:21 34.150253 -118.501122 279 5303ft 92kts
02-Oct-20 15:22 34.154680 -118.529050 280 5780ft 93kts
02-Oct-20 15:23 34.160318 -118.564192 281 6025ft 122kts
02-Oct-20 15:24 34.167453 -118.608152 280 6020ft 126kts
02-Oct-20 15:25 34.174105 -118.649570 280 6020ft 127kts
02-Oct-20 15:26 34.180841 -118.691729 278 6019ft 126kts
02-Oct-20 15:27 34.187519 -118.733637 278 6019ft 126kts
02-Oct-20 15:28 34.193975 -118.774722 283 6019ft 116kts
02-Oct-20 15:29 34.199842 -118.811460 283 6030ft 110kts
02-Oct-20 15:30 34.205662 -118.848097 283 6030ft 110kts
02-Oct-20 15:31 34.211422 -118.884520 283 6029ft 110kts
02-Oct-20 15:32 34.217178 -118.921010 283 6029ft 110kts
02-Oct-20 15:33 34.222877 -118.957219 283 6029ft 109kts
02-Oct-20 15:34 34.228070 -118.990285 283 6028ft 109kts
02-Oct-20 15:35 34.233619 -119.025675 283 6028ft 109kts
02-Oct-20 15:36 34.238912 -119.059506 283 6028ft 109kts
02-Oct-20 15:37 34.245048 -119.098804 284 6029ft 109kts
02-Oct-20 15:38 34.250777 -119.135570 284 6031ft 109kts
02-Oct-20 15:39 34.256439 -119.171977 284 6032ft 110kts
02-Oct-20 15:40 34.262132 -119.208659 284 6033ft 111kts
02-Oct-20 15:41 34.267906 -119.245945 284 6035ft 111kts
02-Oct-20 15:42 34.273867 -119.284503 284 6036ft 111kts
02-Oct-20 15:43 34.279686 -119.322171 284 6036ft 111kts
02-Oct-20 15:44 34.285408 -119.359345 284 6036ft 112kts
02-Oct-20 15:45 34.290978 -119.395624 284 5853ft 103kts
02-Oct-20 15:46 34.296725 -119.432969 283 5347ft 111kts
02-Oct-20 15:47 34.302425 -119.470221 283 4840ft 111kts
02-Oct-20 15:48 34.308055 -119.507102 282 4336ft 111kts
02-Oct-20 15:49 34.319828 -119.541565 295 3830ft 110kts
02-Oct-20 15:50 34.332729 -119.574935 296 3325ft 109kts
02-Oct-20 15:51 34.345718 -119.608451 295 2815ft 109kts
02-Oct-20 15:52 34.358545 -119.641597 295 2310ft 108kts
02-Oct-20 15:53 34.369620 -119.670272 295 2112ft 104kts
02-Oct-20 15:54 34.383029 -119.704957 296 2108ft 100kts
02-Oct-20 15:55 34.394259 -119.736512 294 1693ft 105kts
02-Oct-20 15:56 34.406499 -119.768453 293 1149ft 98kts
02-Oct-20 15:57 34.417507 -119.797141 293 667ft 98kts
02-Oct-20 15:58 34.426643 -119.821609 285 292ft 59kts
02-Oct-20 15:59 34.427813 -119.839959 268 14ft 42kts
02-Oct-20 16:00 34.428957 -119.842099 340 14ft 14kts
02-Oct-20 16:01 34.431192 -119.838175 69 14ft 14kts
02-Oct-20 16:02 34.432883 -119.836028 339 14ft 0kts

Navigation Log

Ident Type
Flight plan parsing failed, navigation log unavailable